createdAt,value
2018-07-10T00:02:35.488Z,214.57
2018-07-10T00:07:22.246Z,220.93
2018-07-10T00:11:02.251Z,206.53
2018-07-10T00:13:29.555Z,203.73
2018-07-10T00:15:56.793Z,196.60
2018-07-10T00:18:24.080Z,205.23
2018-07-10T00:20:51.369Z,203.13
2018-07-10T00:23:18.664Z,208.13
2018-07-10T00:25:45.920Z,193.63
2018-07-10T00:28:13.205Z,200.23
2018-07-10T00:30:40.511Z,211.70
2018-07-10T00:33:07.764Z,202.27
2018-07-10T00:35:35.060Z,226.97
2018-07-10T00:38:13.760Z,219.57
2018-07-10T00:40:41.034Z,194.43
2018-07-10T00:43:10.304Z,201.70
2018-07-10T00:45:37.682Z,204.13
2018-07-10T00:48:05.128Z,208.70
2018-07-10T00:50:32.709Z,206.33
2018-07-10T00:52:59.994Z,189.87
2018-07-10T00:55:27.245Z,188.37
2018-07-10T00:57:54.506Z,194.50
2018-07-10T01:00:31.141Z,191.20
2018-07-10T01:02:58.752Z,193.53
2018-07-10T01:05:26.024Z,189.03
2018-07-10T01:07:53.369Z,205.97
2018-07-10T01:10:20.589Z,195.80
2018-07-10T01:12:47.837Z,201.93
2018-07-10T01:15:15.087Z,198.90
2018-07-10T01:17:42.349Z,194.07
2018-07-10T01:20:09.645Z,193.93
2018-07-10T01:22:36.872Z,188.07
2018-07-10T01:25:04.149Z,188.23
2018-07-10T01:27:31.386Z,184.33
2018-07-10T01:29:58.681Z,190.23
2018-07-10T01:32:25.962Z,185.17
2018-07-10T01:34:53.221Z,194.47
2018-07-10T01:37:20.435Z,197.33
2018-07-10T01:39:47.655Z,190.37
2018-07-10T01:42:14.867Z,175.30
2018-07-10T01:44:42.071Z,188.50
2018-07-10T01:47:09.280Z,182.93
2018-07-10T01:49:36.499Z,179.37
2018-07-10T01:52:03.715Z,178.57
2018-07-10T01:54:30.920Z,173.70
2018-07-10T01:56:58.143Z,171.50
2018-07-10T01:59:25.357Z,173.17
2018-07-10T02:01:52.570Z,169.80
2018-07-10T02:04:19.801Z,182.93
2018-07-10T02:06:47.009Z,177.80
2018-07-10T02:09:14.225Z,167.73
2018-07-10T02:11:41.446Z,174.90
2018-07-10T02:14:08.785Z,177.37
2018-07-10T02:16:35.929Z,160.13
2018-07-10T02:19:03.176Z,162.90
2018-07-10T02:21:30.437Z,162.93
2018-07-10T02:23:57.673Z,162.20
2018-07-10T02:26:25.972Z,155.80
2018-07-10T02:28:53.821Z,158.97
2018-07-10T02:31:21.089Z,155.90
2018-07-10T02:33:48.764Z,165.77
2018-07-10T02:36:16.644Z,152.93
2018-07-10T02:38:47.207Z,155.57
2018-07-10T02:41:16.397Z,151.73
2018-07-10T02:43:49.672Z,156.83
2018-07-10T02:46:16.921Z,174.77
2018-07-10T02:48:44.158Z,153.93
2018-07-10T02:51:11.384Z,155.83
2018-07-10T02:53:40.917Z,156.90
2018-07-10T02:56:10.200Z,150.03
2018-07-10T02:58:37.417Z,166.00
2018-07-10T03:01:05.351Z,152.03
2018-07-10T03:03:33.357Z,158.77
2018-07-10T03:06:00.799Z,158.60
2018-07-10T03:08:28.022Z,158.17
2018-07-10T03:10:57.949Z,165.57
2018-07-10T03:13:27.841Z,162.67
2018-07-10T03:15:57.294Z,161.57
2018-07-10T03:18:28.903Z,153.40
2018-07-10T03:20:57.946Z,145.87
2018-07-10T03:23:27.951Z,159.23
2018-07-10T03:25:57.580Z,155.90
2018-07-10T03:28:27.681Z,165.70
2018-07-10T03:30:54.931Z,154.77
2018-07-10T03:33:22.165Z,155.20
2018-07-10T03:35:49.393Z,153.27
2018-07-10T03:38:16.625Z,151.83
2018-07-10T03:40:43.829Z,151.67
2018-07-10T03:43:11.045Z,166.00
2018-07-10T03:45:38.256Z,163.70
2018-07-10T03:48:05.469Z,155.17
2018-07-10T03:50:32.681Z,168.60
2018-07-10T03:52:59.897Z,154.20
2018-07-10T03:55:27.161Z,163.40
2018-07-10T03:57:56.515Z,170.30
2018-07-10T04:00:24.806Z,166.50
2018-07-10T04:02:52.548Z,159.50
2018-07-10T04:05:21.076Z,157.13
2018-07-10T04:07:49.181Z,172.33
2018-07-10T04:10:16.839Z,157.07
2018-07-10T04:12:46.314Z,175.77
2018-07-10T04:15:13.553Z,166.97
2018-07-10T04:17:45.215Z,157.73
2018-07-10T04:20:15.224Z,172.30
2018-07-10T04:22:42.514Z,161.13
2018-07-10T04:25:09.752Z,173.10
2018-07-10T04:27:57.605Z,184.43
2018-07-10T04:30:42.160Z,168.00
2018-07-10T04:33:09.392Z,168.57
2018-07-10T04:35:36.628Z,157.83
2018-07-10T04:38:04.173Z,177.53
2018-07-10T04:40:32.625Z,163.53
2018-07-10T04:43:01.048Z,176.57
2018-07-10T04:45:41.225Z,163.67
2018-07-10T04:48:13.708Z,165.53
2018-07-10T04:50:47.229Z,172.47
2018-07-10T04:53:33.896Z,178.37
2018-07-10T04:56:01.137Z,170.70
2018-07-10T04:58:28.381Z,173.30
2018-07-10T05:00:57.782Z,176.47
2018-07-10T05:03:25.585Z,176.33
2018-07-10T05:05:52.916Z,177.80
2018-07-10T05:08:20.697Z,173.80
2018-07-10T05:10:48.920Z,178.10
2018-07-10T05:13:16.169Z,170.57
2018-07-10T05:15:47.010Z,174.73
2018-07-10T05:18:14.220Z,178.83
2018-07-10T05:20:43.072Z,177.03
2018-07-10T05:23:12.139Z,191.00
2018-07-10T05:25:40.377Z,178.50
2018-07-10T05:28:07.609Z,180.33
2018-07-10T05:30:35.429Z,201.27
2018-07-10T05:33:02.664Z,191.17
2018-07-10T05:35:29.934Z,212.27
2018-07-10T05:37:59.552Z,196.37
2018-07-10T05:40:26.795Z,210.03
2018-07-10T05:42:54.029Z,217.40
2018-07-10T05:45:23.199Z,211.37
2018-07-10T05:47:53.939Z,214.43
2018-07-10T05:50:21.183Z,214.77
2018-07-10T05:52:48.535Z,215.07
2018-07-10T05:55:20.574Z,218.33
2018-07-10T05:57:47.805Z,216.63
2018-07-10T06:00:15.028Z,221.67
2018-07-10T06:02:42.218Z,227.93
2018-07-10T06:05:09.961Z,222.07
2018-07-10T06:07:37.198Z,212.17
2018-07-10T06:10:04.786Z,228.50
2018-07-10T06:12:32.017Z,213.83
2018-07-10T06:14:59.263Z,222.53
2018-07-10T06:17:28.389Z,222.43
2018-07-10T06:19:55.634Z,224.93
2018-07-10T06:22:24.179Z,222.80
2018-07-10T06:24:51.932Z,217.93
2018-07-10T06:27:22.878Z,231.97
2018-07-10T06:29:55.769Z,231.10
2018-07-10T06:32:23.146Z,235.00
2018-07-10T06:34:56.153Z,219.40
2018-07-10T06:37:30.005Z,219.23
2018-07-10T06:39:58.149Z,214.80
2018-07-10T06:42:28.603Z,219.07
2018-07-10T06:44:56.470Z,237.20
2018-07-10T06:47:27.678Z,220.37
2018-07-10T06:49:54.934Z,209.63
2018-07-10T06:52:22.666Z,224.67
2018-07-10T06:54:53.730Z,216.70
2018-07-10T06:57:27.526Z,206.53
2018-07-10T06:59:55.106Z,210.97
2018-07-10T07:02:22.325Z,229.70
2018-07-10T07:04:49.532Z,210.43
2018-07-10T07:07:16.710Z,225.27
2018-07-10T07:09:43.873Z,209.07
2018-07-10T07:12:11.852Z,206.17
2018-07-10T07:14:39.061Z,204.10
2018-07-10T07:17:06.265Z,212.23
2018-07-10T07:19:33.472Z,206.63
2018-07-10T07:22:00.663Z,214.27
2018-07-10T07:24:27.857Z,230.33
2018-07-10T07:26:55.033Z,228.30
2018-07-10T07:29:22.250Z,221.87
2018-07-10T07:31:49.525Z,220.50
2018-07-10T07:34:16.704Z,225.53
2018-07-10T07:36:43.911Z,221.30
2018-07-10T07:39:11.121Z,208.13
2018-07-10T07:41:38.335Z,206.03
2018-07-10T07:44:05.650Z,202.77
2018-07-10T07:46:32.753Z,213.60
2018-07-10T07:48:59.973Z,182.97
2018-07-10T07:51:27.180Z,190.97
2018-07-10T07:53:54.392Z,183.50
2018-07-10T07:56:21.613Z,200.87
2018-07-10T07:58:48.825Z,181.77
2018-07-10T08:01:16.072Z,189.43
2018-07-10T08:03:43.300Z,171.20
2018-07-10T08:06:11.100Z,179.30
2018-07-10T08:08:38.358Z,192.63
2018-07-10T08:11:05.973Z,163.00
2018-07-10T08:13:33.216Z,183.57
2018-07-10T08:16:00.623Z,171.27
2018-07-10T08:18:27.862Z,176.87
2018-07-10T08:20:55.257Z,185.67
2018-07-10T08:23:22.501Z,180.37
2018-07-10T08:25:49.743Z,182.43
2018-07-10T08:28:16.996Z,189.17
2018-07-10T08:30:44.226Z,191.30
2018-07-10T08:33:11.486Z,202.73
2018-07-10T08:35:38.725Z,205.37
2018-07-10T08:38:05.990Z,207.40
2018-07-10T08:40:33.254Z,223.07
2018-07-10T08:43:00.541Z,228.30
2018-07-10T08:45:27.778Z,224.13
2018-07-10T08:47:56.389Z,239.17
2018-07-10T08:50:23.634Z,247.73
2018-07-10T08:52:51.119Z,265.90
2018-07-10T08:55:18.368Z,246.23
2018-07-10T08:57:45.637Z,260.73
2018-07-10T09:00:12.881Z,296.00
2018-07-10T09:02:40.296Z,303.50
2018-07-10T09:05:07.529Z,295.87
2018-07-10T09:07:34.782Z,352.53
2018-07-10T09:10:02.049Z,383.37
2018-07-10T09:12:29.284Z,431.83
2018-07-10T09:14:56.520Z,480.20
2018-07-10T09:17:23.757Z,488.47
2018-07-10T09:19:50.995Z,484.17
2018-07-10T09:22:18.245Z,454.10
2018-07-10T09:24:48.275Z,435.67
2018-07-10T09:27:17.650Z,447.83
2018-07-10T09:29:45.308Z,385.17
2018-07-10T09:32:12.553Z,398.20
2018-07-10T09:34:39.772Z,396.80
2018-07-10T09:37:13.592Z,449.93
2018-07-10T09:39:40.829Z,483.40
2018-07-10T09:42:08.066Z,456.20
2018-07-10T09:44:35.352Z,393.60
2018-07-10T09:47:02.655Z,381.17
2018-07-10T09:49:29.850Z,331.27
2018-07-10T09:51:57.097Z,321.67
2018-07-10T09:54:24.338Z,297.53
2018-07-10T09:56:51.546Z,265.53
2018-07-10T09:59:18.769Z,252.77
2018-07-10T10:01:46.104Z,258.60
2018-07-10T10:04:13.293Z,251.97
2018-07-10T10:06:40.520Z,247.03
2018-07-10T10:09:07.741Z,271.37
2018-07-10T10:11:34.948Z,308.77
2018-07-10T10:14:02.187Z,337.20
2018-07-10T10:16:29.398Z,370.37
2018-07-10T10:18:57.997Z,369.47
2018-07-10T10:21:26.148Z,366.77
2018-07-10T10:23:54.250Z,419.13
2018-07-10T10:26:21.456Z,468.97
2018-07-10T10:28:48.988Z,519.47
2018-07-10T10:31:16.205Z,569.77
2018-07-10T10:33:43.421Z,592.23
2018-07-10T10:36:10.630Z,585.97
2018-07-10T10:38:39.221Z,544.80
2018-07-10T10:41:06.428Z,519.30
2018-07-10T10:43:33.640Z,530.53
2018-07-10T10:46:00.849Z,486.77
2018-07-10T10:48:28.069Z,441.27
2018-07-10T10:50:55.285Z,449.83
2018-07-10T10:53:22.477Z,440.40
2018-07-10T10:55:49.688Z,432.27
2018-07-10T10:58:18.022Z,389.37
2018-07-10T11:00:45.234Z,365.47
2018-07-10T11:03:12.431Z,376.23
2018-07-10T11:05:39.657Z,338.93
2018-07-10T11:08:07.252Z,346.60
2018-07-10T11:10:34.513Z,325.63
2018-07-10T11:13:01.730Z,315.33
2018-07-10T11:15:29.030Z,300.20
2018-07-10T11:18:03.802Z,321.13
2018-07-10T11:20:38.753Z,300.60
2018-07-10T11:23:07.340Z,287.83
2018-07-10T11:25:39.796Z,282.53
2018-07-10T11:28:09.038Z,264.03
2018-07-10T11:30:36.606Z,263.53
2018-07-10T11:33:05.620Z,249.57
2018-07-10T11:35:33.402Z,242.70
2018-07-10T11:38:02.189Z,242.20
2018-07-10T11:40:29.885Z,236.60
2018-07-10T11:42:57.086Z,224.90
2018-07-10T11:45:24.304Z,217.00
2018-07-10T11:47:51.572Z,206.03
2018-07-10T11:50:18.936Z,222.00
2018-07-10T11:52:46.136Z,199.27
2018-07-10T11:55:13.346Z,200.73
2018-07-10T11:57:40.925Z,203.70
2018-07-10T12:00:08.169Z,198.63
2018-07-10T12:02:41.297Z,223.83
2018-07-10T12:05:08.506Z,216.97
2018-07-10T12:07:36.231Z,200.43
2018-07-10T12:10:15.490Z,218.67
2018-07-10T12:12:42.779Z,215.10
2018-07-10T12:15:09.949Z,231.37
2018-07-10T12:17:37.160Z,218.37
2018-07-10T12:20:04.370Z,256.60
2018-07-10T12:22:32.421Z,330.03
2018-07-10T12:24:59.634Z,387.47
2018-07-10T12:27:26.849Z,441.83
2018-07-10T12:29:54.084Z,487.40
2018-07-10T12:32:21.308Z,514.03
2018-07-10T12:34:48.582Z,573.93
2018-07-10T12:37:15.765Z,631.00
2018-07-10T12:39:43.169Z,625.57
2018-07-10T12:42:10.380Z,658.17
2018-07-10T12:44:37.573Z,628.17
2018-07-10T12:47:04.774Z,608.33
2018-07-10T12:49:32.029Z,581.50
2018-07-10T12:51:59.194Z,564.03
2018-07-10T12:54:26.407Z,548.10
2018-07-10T12:56:53.655Z,554.73
2018-07-10T12:59:20.893Z,565.23
2018-07-10T13:01:48.154Z,527.93
2018-07-10T13:04:15.392Z,538.57
2018-07-10T13:06:42.610Z,524.10
2018-07-10T13:09:09.821Z,480.70
2018-07-10T13:11:37.073Z,456.43
2018-07-10T13:14:04.321Z,426.73
2018-07-10T13:16:31.564Z,406.43
2018-07-10T13:18:58.811Z,415.47
2018-07-10T13:21:26.066Z,434.93
2018-07-10T13:23:53.294Z,467.57
2018-07-10T13:26:20.545Z,456.23
2018-07-10T13:28:47.790Z,515.63
2018-07-10T13:31:15.014Z,507.30
2018-07-10T13:33:42.262Z,488.77
2018-07-10T13:36:09.499Z,485.53
2018-07-10T13:38:36.733Z,488.83
2018-07-10T13:41:03.978Z,501.03
2018-07-10T13:43:31.218Z,491.30
2018-07-10T13:45:58.432Z,480.13
2018-07-10T13:48:25.672Z,452.87
2018-07-10T13:50:52.922Z,423.70
2018-07-10T13:53:20.144Z,445.90
2018-07-10T13:55:47.377Z,418.07
2018-07-10T13:58:22.201Z,392.70
2018-07-10T14:00:53.281Z,402.63
2018-07-10T14:03:20.724Z,381.70
2018-07-10T14:05:47.923Z,377.63
2018-07-10T14:08:15.172Z,388.90
2018-07-10T14:10:42.401Z,423.47
2018-07-10T14:13:09.637Z,389.47
2018-07-10T14:15:36.897Z,392.97
2018-07-10T14:18:04.533Z,424.03
2018-07-10T14:20:38.196Z,416.93
2018-07-10T14:23:05.445Z,424.63
2018-07-10T14:25:32.672Z,395.67
2018-07-10T14:28:00.146Z,382.93
2018-07-10T14:30:27.481Z,371.30
2018-07-10T14:32:54.717Z,387.93
2018-07-10T14:35:21.961Z,439.23
2018-07-10T14:37:49.214Z,454.97
2018-07-10T14:40:16.482Z,435.43
2018-07-10T14:42:43.725Z,443.20
2018-07-10T14:45:10.967Z,404.83
2018-07-10T14:47:38.217Z,389.60
2018-07-10T14:50:05.461Z,355.10
2018-07-10T14:52:32.684Z,359.37
2018-07-10T14:54:59.893Z,399.70
2018-07-10T14:57:27.106Z,436.83
2018-07-10T14:59:54.321Z,419.77
2018-07-10T15:02:21.561Z,458.20
2018-07-10T15:04:48.764Z,462.77
2018-07-10T15:07:16.012Z,447.97
2018-07-10T15:09:43.222Z,448.43
2018-07-10T15:12:10.419Z,434.57
2018-07-10T15:14:37.792Z,441.93
2018-07-10T15:17:10.596Z,419.83
2018-07-10T15:19:37.871Z,399.87
2018-07-10T15:22:05.076Z,417.00
2018-07-10T15:24:32.279Z,384.30
2018-07-10T15:26:59.492Z,397.07
2018-07-10T15:29:28.209Z,409.87
2018-07-10T15:31:55.821Z,388.80
2018-07-10T15:34:23.068Z,407.73
2018-07-10T15:36:50.256Z,413.57
2018-07-10T15:39:17.974Z,414.67
2018-07-10T15:41:45.212Z,389.23
2018-07-10T15:44:12.396Z,387.37
2018-07-10T15:46:39.624Z,380.67
2018-07-10T15:49:06.841Z,366.00
2018-07-10T15:51:34.050Z,367.90
2018-07-10T15:54:01.269Z,374.23
2018-07-10T15:56:28.506Z,352.63
2018-07-10T15:58:55.729Z,382.63
2018-07-10T16:01:22.940Z,371.60
2018-07-10T16:03:50.172Z,373.63
2018-07-10T16:06:17.445Z,396.43
2018-07-10T16:08:45.155Z,375.93
2018-07-10T16:11:12.365Z,407.80
2018-07-10T16:13:41.940Z,409.63
2018-07-10T16:16:18.713Z,385.07
2018-07-10T16:18:51.506Z,370.43
2018-07-10T16:21:18.777Z,363.73
2018-07-10T16:23:46.021Z,365.10
2018-07-10T16:26:22.745Z,358.50
2018-07-10T16:28:50.797Z,365.37
2018-07-10T16:31:19.043Z,363.53
2018-07-10T16:33:46.265Z,377.43
2018-07-10T16:36:13.753Z,351.30
2018-07-10T16:38:41.824Z,373.63
2018-07-10T16:41:17.124Z,364.77
2018-07-10T16:43:44.374Z,356.00
2018-07-10T16:46:12.153Z,355.57
2018-07-10T16:48:48.152Z,359.60
2018-07-10T16:51:25.598Z,386.00
2018-07-10T16:53:56.555Z,362.53
2018-07-10T16:56:24.192Z,314.67
2018-07-10T16:58:52.461Z,302.93
2018-07-10T17:01:19.686Z,294.17
2018-07-10T17:03:46.893Z,274.67
2018-07-10T17:06:14.270Z,269.47
2018-07-10T17:08:41.573Z,282.30
2018-07-10T17:11:08.777Z,268.30
2018-07-10T17:13:36.045Z,287.13
2018-07-10T17:16:03.345Z,302.90
2018-07-10T17:18:30.773Z,317.30
2018-07-10T17:20:58.157Z,323.23
2018-07-10T17:23:25.372Z,321.37
2018-07-10T17:25:52.935Z,303.87
2018-07-10T17:28:20.144Z,283.23
2018-07-10T17:30:47.457Z,276.10
2018-07-10T17:33:14.842Z,276.23
2018-07-10T17:35:42.052Z,254.27
2018-07-10T17:38:09.258Z,257.87
2018-07-10T17:40:37.267Z,244.90
2018-07-10T17:43:04.589Z,234.00
2018-07-10T17:45:31.921Z,237.73
2018-07-10T17:47:59.927Z,213.47
2018-07-10T17:50:27.150Z,213.23
2018-07-10T17:52:54.874Z,206.60
2018-07-10T17:55:23.044Z,219.80
2018-07-10T17:57:53.576Z,204.40
2018-07-10T18:00:20.813Z,206.03
2018-07-10T18:02:48.133Z,195.77
2018-07-10T18:05:15.327Z,205.50
2018-07-10T18:07:42.502Z,210.27
2018-07-10T18:10:09.741Z,215.03
2018-07-10T18:12:36.966Z,193.50
2018-07-10T18:15:04.425Z,191.80
2018-07-10T18:17:31.649Z,200.57
2018-07-10T18:19:58.931Z,185.40
2018-07-10T18:22:26.165Z,188.63
2018-07-10T18:24:53.381Z,184.13
2018-07-10T18:27:20.621Z,207.57
2018-07-10T18:29:47.921Z,179.20
2018-07-10T18:32:15.131Z,186.30
2018-07-10T18:34:42.345Z,174.83
2018-07-10T18:37:09.660Z,174.20
2018-07-10T18:39:36.862Z,175.00
2018-07-10T18:42:04.130Z,172.73
2018-07-10T18:44:31.585Z,174.07
2018-07-10T18:46:58.813Z,183.67
2018-07-10T18:49:26.017Z,185.67
2018-07-10T18:51:53.281Z,179.47
2018-07-10T18:54:29.045Z,174.43
2018-07-10T18:56:56.360Z,168.03
2018-07-10T18:59:24.985Z,165.40
2018-07-10T19:01:59.235Z,168.40
2018-07-10T19:04:38.445Z,164.07
2018-07-10T19:07:05.786Z,171.70
2018-07-10T19:09:34.301Z,164.80
2018-07-10T19:12:03.413Z,162.60
2018-07-10T19:14:30.685Z,157.40
2018-07-10T19:16:57.956Z,155.20
2018-07-10T19:19:25.199Z,159.67
2018-07-10T19:21:55.432Z,160.17
2018-07-10T19:24:24.452Z,156.50
2018-07-10T19:26:51.749Z,162.60
2018-07-10T19:29:22.164Z,162.70
2018-07-10T19:31:49.961Z,164.70
2018-07-10T19:34:17.290Z,155.77
2018-07-10T19:36:44.544Z,153.70
2018-07-10T19:39:11.833Z,159.00
2018-07-10T19:41:39.117Z,163.80
2018-07-10T19:44:06.362Z,166.97
2018-07-10T19:46:34.937Z,163.47
2018-07-10T19:49:03.918Z,167.00
2018-07-10T19:51:31.154Z,156.43
2018-07-10T19:54:14.849Z,157.27
2018-07-10T19:56:42.101Z,160.77
2018-07-10T19:59:10.836Z,151.33
2018-07-10T20:01:56.212Z,161.63
2018-07-10T20:04:27.596Z,150.87
2018-07-10T20:07:59.501Z,146.73
2018-07-10T20:10:33.104Z,150.33
2018-07-10T20:13:06.482Z,146.53
2018-07-10T20:15:38.669Z,145.20
2018-07-10T20:20:18.011Z,156.70
2018-07-10T20:22:50.353Z,149.80
2018-07-10T20:27:37.685Z,155.90
2018-07-10T20:30:19.048Z,138.73
2018-07-10T20:33:03.252Z,144.03
2018-07-10T20:35:31.527Z,137.60
2018-07-10T20:37:58.779Z,139.47
2018-07-10T20:40:33.432Z,139.43
2018-07-10T20:43:08.372Z,137.00
2018-07-10T20:45:47.337Z,143.03
2018-07-10T20:48:26.522Z,137.03
2018-07-10T20:50:58.277Z,136.73
2018-07-10T20:53:32.567Z,138.50
2018-07-10T20:56:04.709Z,135.10
2018-07-10T20:58:38.016Z,137.93
2018-07-10T21:01:06.130Z,137.17
2018-07-10T21:03:40.278Z,137.40
2018-07-10T21:06:16.762Z,137.03
2018-07-10T21:08:53.917Z,133.17
2018-07-10T21:11:25.897Z,139.63
2018-07-10T21:13:56.659Z,145.33
2018-07-10T21:16:31.418Z,136.93
2018-07-10T21:19:09.218Z,132.63
2018-07-10T21:21:56.457Z,136.87
2018-07-10T21:24:34.845Z,131.03
2018-07-10T21:27:08.066Z,130.73
2018-07-10T21:29:49.797Z,130.63
2018-07-10T21:32:27.094Z,126.50
2018-07-10T21:34:54.303Z,128.70
2018-07-10T21:39:34.948Z,131.37
2018-07-10T21:43:13.732Z,133.37
2018-07-10T21:46:48.712Z,125.73
2018-07-10T21:49:55.551Z,130.00
2018-07-10T21:52:23.227Z,127.03
2018-07-10T21:54:50.440Z,126.17
2018-07-10T21:57:23.076Z,126.00
2018-07-10T21:59:52.296Z,131.03
2018-07-10T22:02:19.512Z,131.40
2018-07-10T22:04:47.936Z,131.27
2018-07-10T22:07:15.623Z,130.17
2018-07-10T22:09:43.362Z,136.67
2018-07-10T22:12:13.898Z,133.93
2018-07-10T22:14:41.433Z,134.03
2018-07-10T22:17:12.453Z,131.37
2018-07-10T22:19:40.851Z,138.67
2018-07-10T22:22:08.072Z,130.37
2018-07-10T22:24:35.279Z,127.90
2018-07-10T22:27:02.493Z,127.10
2018-07-10T22:29:35.488Z,131.17
2018-07-10T22:32:10.170Z,127.60
2018-07-10T22:34:39.583Z,129.47
2018-07-10T22:37:06.803Z,124.63
2018-07-10T22:39:34.010Z,125.90
2018-07-10T22:42:01.230Z,127.27
2018-07-10T22:44:30.277Z,125.13
2018-07-10T22:46:58.695Z,129.63
2018-07-10T22:49:25.907Z,122.53
2018-07-10T22:51:55.154Z,121.20
2018-07-10T22:54:22.356Z,127.17
2018-07-10T22:56:49.598Z,123.93
2018-07-10T22:59:16.837Z,126.03
2018-07-10T23:01:44.112Z,125.30
2018-07-10T23:04:11.340Z,122.03
2018-07-10T23:06:38.586Z,124.90
2018-07-10T23:09:05.930Z,127.73
2018-07-10T23:11:34.310Z,126.23
2018-07-10T23:14:01.601Z,128.77
2018-07-10T23:16:29.467Z,136.43
2018-07-10T23:18:56.726Z,127.07
2018-07-10T23:21:23.977Z,130.20
2018-07-10T23:23:51.873Z,133.73
2018-07-10T23:26:19.112Z,128.83
2018-07-10T23:28:49.968Z,134.77
2018-07-10T23:31:17.210Z,136.57
2018-07-10T23:33:47.785Z,128.50
2018-07-10T23:36:15.022Z,132.13
2018-07-10T23:38:47.122Z,133.43
2018-07-10T23:41:20.544Z,134.77
2018-07-10T23:43:47.793Z,133.97
2018-07-10T23:46:25.236Z,125.83
2018-07-10T23:48:54.713Z,128.60
2018-07-10T23:51:21.933Z,127.07
2018-07-10T23:53:50.371Z,122.93
2018-07-10T23:56:18.359Z,135.87
2018-07-10T23:58:46.237Z,127.60
